Moscow, ID

1:18 PM PST on November 27, 2014 (GMT -0800)
Westview | Change Station
CLOSE
Current Station
Personal Weather Station
Location: Moscow, ID
Elevation: 2650 ft
Nearby Weather Stations

Elev 2650 ft 46.73 °N, 116.97 °W | Updated 2 minutes ago

Overcast
Overcast
50.4 °F
Feels Like 50.4 °F
N
0.0
Wind Variable Wind from NE
Gusts 7.0 mph

Today
High -- | Low -- °F
--% Chance of Precip.
Yesterday
High -- | Low -- °F
Precip. -- in
7:07 AM 4:03 PM
Waxing Crescent, 33% visible
Pressure 29.91 in
Visibility 10.0 miles
Clouds Overcast 6500 ft
Dew Point 44 °F
Humidity 78%
Rainfall 0.00 in
Snow Depth Not available.
UV 0 out of 12
Pollen 1.50 out of 12
Air Quality Not available.
Flu Activity Not available.
METAR KPUW 272053Z AUTO 00000KT 10SM OVC065 12/07 A2990 RMK AO2 SLP126 T01220072 56020

More Conditions Fewer Conditions

Pressure 29.91 in
Visibility 10.0 miles
Clouds Overcast 6500 ft
Dew Point 44 °F
Humidity 78%
Rainfall 0.00 in
Snow Depth Not available.
UV 0 out of 12
Pollen 1.50 out of 12
Air Quality Not available.
Flu Activity Not available.
METAR KPUW 272053Z AUTO 00000KT 10SM OVC065 12/07 A2990 RMK AO2 SLP126 T01220072 56020

More Conditions Fewer Conditions

10-Day Weather Forecast

Almanac

Astronomy

Nov. 27, 2014 Rise Set
Actual Time
Civil Twilight
Nautical Twilight
Astronomical Twilight
Moon
Length of Visible Light
Length of Day
Tomorrow will be .
, % of the Moon is Illuminated

Today's Extremes

State Highs State Lows

Community

WunderPhotos

Upload Photos

1,774,106 photos uploaded!

WunderBlogs® & News

Nearby

Air Quality

  Air Quality AQ Index Pollutant
Not available.

Snow Depth

Station Depth Elevation

Earthquake Activity

City Distance Mag. Time & Date
Minimum magnitude displayed is 2.5.

Coastal Water Temperatures

Place Temperature

Nearby Weather Stations